Time;durP1;ratioP1;P1;durP2;ratioP2;P2;SDS_P1;SDS_P2;PMS_P1;PMS_P2;Temp;Humidity;BMP_temperature;BMP_pressure;BME280_temperature;BME280_humidity;BME280_pressure;Samples;Min_cycle;Max_cycle;Signal;HPM_P1;HPM_P2
2020/12/12 00:01:36;;;;;;;80.32;30.30;;;3.30;99.90;;;;;;5009827;28;20026;-79
2020/12/12 00:04:02;;;;;;;82.53;28.80;;;3.30;99.90;;;;;;5008493;28;20050;-78
2020/12/12 00:06:27;;;;;;;81.18;28.50;;;3.30;99.90;;;;;;5010087;28;20026;-79
2020/12/12 00:08:53;;;;;;;77.10;28.45;;;3.30;99.90;;;;;;5009082;28;20029;-79
2020/12/12 00:11:20;;;;;;;80.95;28.10;;;3.30;99.90;;;;;;5011230;28;20041;-78
2020/12/12 00:13:45;;;;;;;90.03;29.23;;;3.40;99.90;;;;;;5009014;28;20034;-78
2020/12/12 00:16:14;;;;;;;75.57;27.10;;;3.40;99.90;;;;;;5004937;28;20041;-78
2020/12/12 00:18:39;;;;;;;75.10;28.15;;;3.40;99.90;;;;;;5010397;28;20080;-78
2020/12/12 00:21:04;;;;;;;87.75;28.65;;;3.40;99.90;;;;;;5010978;28;20046;-78
2020/12/12 00:23:31;;;;;;;88.00;28.02;;;3.40;99.90;;;;;;5011233;28;20077;-78
2020/12/12 00:25:56;;;;;;;76.47;28.42;;;3.40;99.90;;;;;;5010246;28;20064;-78
2020/12/12 00:28:22;;;;;;;85.38;28.67;;;3.40;99.90;;;;;;5010894;28;20064;-78
2020/12/12 00:30:48;;;;;;;90.93;29.85;;;3.30;99.90;;;;;;5010285;28;20114;-78
2020/12/12 00:33:13;;;;;;;86.90;28.05;;;3.40;99.90;;;;;;5007622;28;20029;-78
2020/12/12 00:35:39;;;;;;;78.00;29.73;;;3.40;99.90;;;;;;5007710;28;20026;-78
2020/12/12 00:38:04;;;;;;;81.07;28.00;;;3.30;99.90;;;;;;5006463;28;20531;-78
2020/12/12 00:40:30;;;;;;;80.20;26.33;;;3.30;99.90;;;;;;5009480;28;20101;-78
2020/12/12 00:42:55;;;;;;;80.78;30.35;;;3.30;99.90;;;;;;5005491;28;20532;-78
2020/12/12 00:45:21;;;;;;;85.72;29.73;;;3.30;99.90;;;;;;5009735;28;20036;-78
2020/12/12 00:47:46;;;;;;;83.80;27.45;;;3.30;99.90;;;;;;5008010;28;20030;-78
2020/12/12 00:50:12;;;;;;;73.35;27.92;;;3.30;99.90;;;;;;5009435;28;20110;-78
2020/12/12 00:52:37;;;;;;;87.95;30.10;;;3.30;99.90;;;;;;5009545;28;20076;-78
2020/12/12 00:55:03;;;;;;;79.10;27.30;;;3.20;99.90;;;;;;5011257;28;20728;-78
2020/12/12 00:57:29;;;;;;;76.55;28.52;;;3.10;99.90;;;;;;5009093;28;20030;-78
2020/12/12 00:59:54;;;;;;;76.13;27.52;;;3.10;99.90;;;;;;5008380;28;20029;-78
2020/12/12 01:02:20;;;;;;;81.40;29.73;;;3.10;99.90;;;;;;5007004;28;20023;-78
2020/12/12 01:04:45;;;;;;;78.75;29.27;;;3.10;99.90;;;;;;5009929;28;20088;-78
2020/12/12 01:07:11;;;;;;;87.85;29.10;;;3.10;99.90;;;;;;5001240;28;20342;-78
2020/12/12 01:09:36;;;;;;;86.65;29.30;;;3.10;99.90;;;;;;5009655;28;20037;-77
2020/12/12 01:12:02;;;;;;;82.03;28.23;;;3.00;99.90;;;;;;5009046;28;20072;-77
2020/12/12 01:14:27;;;;;;;84.28;30.38;;;3.00;99.90;;;;;;5008463;28;20034;-78
2020/12/12 01:16:53;;;;;;;83.85;29.80;;;2.90;99.90;;;;;;5009602;28;20014;-78
2020/12/12 01:19:18;;;;;;;77.90;28.40;;;2.90;99.90;;;;;;5005557;28;20664;-78
2020/12/12 01:21:44;;;;;;;81.07;28.38;;;2.90;99.90;;;;;;5007190;28;20034;-78
2020/12/12 01:24:10;;;;;;;87.00;29.23;;;2.90;99.90;;;;;;5009850;28;20037;-78
2020/12/12 01:26:35;;;;;;;80.75;28.35;;;2.90;99.90;;;;;;5010062;28;20104;-78
2020/12/12 01:29:01;;;;;;;93.40;29.65;;;2.80;99.90;;;;;;5008672;28;20038;-78
2020/12/12 01:31:26;;;;;;;88.80;29.63;;;2.80;99.90;;;;;;5008981;28;20029;-77
2020/12/12 01:33:52;;;;;;;89.50;30.70;;;2.80;99.90;;;;;;5004390;28;20080;-78
2020/12/12 01:36:18;;;;;;;85.10;27.77;;;2.80;99.90;;;;;;5009189;28;20037;-78
2020/12/12 01:38:43;;;;;;;91.35;29.85;;;2.80;99.90;;;;;;5008470;28;20521;-78
2020/12/12 01:41:09;;;;;;;91.43;30.30;;;2.90;99.90;;;;;;5008646;28;20125;-79
2020/12/12 01:43:34;;;;;;;82.30;28.33;;;2.80;99.90;;;;;;5008804;28;20385;-79
2020/12/12 01:46:00;;;;;;;80.13;28.92;;;2.80;99.90;;;;;;5007828;28;20084;-80
2020/12/12 01:48:26;;;;;;;89.22;28.10;;;2.80;99.90;;;;;;5009180;28;20052;-80
2020/12/12 01:50:51;;;;;;;87.57;29.23;;;2.70;99.90;;;;;;5009916;28;20493;-79
2020/12/12 01:53:19;;;;;;;87.60;29.42;;;2.60;99.90;;;;;;5008449;28;20107;-77
2020/12/12 01:55:48;;;;;;;82.53;27.75;;;2.60;99.90;;;;;;5006528;28;20517;-78
2020/12/12 01:58:15;;;;;;;81.53;28.95;;;2.60;99.90;;;;;;5004413;28;20025;-78
2020/12/12 02:00:41;;;;;;;86.55;29.77;;;2.60;99.90;;;;;;5006752;28;20025;-77
2020/12/12 02:03:12;;;;;;;85.63;30.00;;;2.60;99.90;;;;;;5008858;28;20033;-77
2020/12/12 02:05:38;;;;;;;86.15;29.17;;;2.50;99.90;;;;;;5007650;28;20143;-77
2020/12/12 02:08:11;;;;;;;83.95;28.10;;;2.50;99.90;;;;;;5007902;28;20060;-77
2020/12/12 02:10:39;;;;;;;86.78;28.02;;;2.60;99.90;;;;;;5009031;28;20056;-77
2020/12/12 02:13:06;;;;;;;84.43;27.88;;;2.60;99.90;;;;;;5006884;28;20543;-77
2020/12/12 02:15:32;;;;;;;87.70;29.77;;;2.60;99.90;;;;;;5006559;28;20072;-78
2020/12/12 02:17:59;;;;;;;83.43;28.48;;;2.50;99.90;;;;;;5009692;28;20136;-78
2020/12/12 02:20:25;;;;;;;80.38;28.38;;;2.50;99.90;;;;;;5004919;28;20125;-78
2020/12/12 02:22:50;;;;;;;72.63;26.30;;;2.50;99.90;;;;;;5007489;28;20060;-78
2020/12/12 02:25:16;;;;;;;81.28;28.80;;;2.50;99.90;;;;;;5009376;28;20053;-78
2020/12/12 02:27:41;;;;;;;84.38;29.17;;;2.50;99.90;;;;;;5001199;28;20112;-78
2020/12/12 02:30:07;;;;;;;83.55;28.02;;;2.50;99.90;;;;;;5007398;28;20026;-78
2020/12/12 02:32:33;;;;;;;76.15;27.77;;;2.50;99.90;;;;;;5005427;28;20113;-78
2020/12/12 02:35:00;;;;;;;80.80;28.75;;;2.40;99.90;;;;;;5007480;28;20124;-79
2020/12/12 02:37:25;;;;;;;89.18;28.13;;;2.50;99.90;;;;;;5007963;28;20120;-78
2020/12/12 02:39:51;;;;;;;76.75;28.30;;;2.40;99.90;;;;;;5007268;28;20042;-78
2020/12/12 02:42:16;;;;;;;69.70;26.40;;;2.40;99.90;;;;;;5009019;28;20448;-79
2020/12/12 02:44:42;;;;;;;78.95;26.73;;;2.40;99.90;;;;;;5005981;28;20026;-79
2020/12/12 02:47:07;;;;;;;89.55;29.17;;;2.30;99.90;;;;;;5007473;28;20025;-79
2020/12/12 02:49:32;;;;;;;81.97;28.95;;;2.30;99.90;;;;;;5008028;28;20116;-79
2020/12/12 02:51:58;;;;;;;85.78;28.45;;;2.30;99.90;;;;;;5007301;28;20025;-78
2020/12/12 02:54:23;;;;;;;79.55;27.83;;;2.30;99.90;;;;;;5007771;28;20026;-78
2020/12/12 02:56:49;;;;;;;83.97;27.67;;;2.30;99.90;;;;;;5005279;28;20034;-78
2020/12/12 02:59:14;;;;;;;72.78;26.55;;;2.40;99.90;;;;;;5006875;28;20117;-78
2020/12/12 03:01:41;;;;;;;71.78;26.10;;;2.30;99.90;;;;;;5006805;28;20026;-78
2020/12/12 03:04:06;;;;;;;73.55;27.55;;;2.40;99.90;;;;;;5007179;28;20042;-79
2020/12/12 03:06:32;;;;;;;80.05;27.90;;;2.40;99.90;;;;;;5006568;28;20057;-79
2020/12/12 03:08:57;;;;;;;76.60;27.13;;;2.30;99.90;;;;;;5008813;28;20054;-78
2020/12/12 03:11:23;;;;;;;74.60;27.17;;;2.40;99.90;;;;;;5005830;28;20030;-78
2020/12/12 03:13:48;;;;;;;80.57;26.15;;;2.40;99.90;;;;;;5008283;28;20463;-78
2020/12/12 03:16:14;;;;;;;74.97;26.17;;;2.40;99.90;;;;;;5006713;28;20037;-78
2020/12/12 03:18:39;;;;;;;76.82;27.02;;;2.40;99.90;;;;;;5008727;28;20030;-78
2020/12/12 03:21:05;;;;;;;82.60;27.65;;;2.40;99.90;;;;;;5005711;28;20488;-78
2020/12/12 03:23:30;;;;;;;75.20;26.95;;;2.40;99.90;;;;;;5007471;28;20029;-78
2020/12/12 03:25:56;;;;;;;70.05;26.33;;;2.40;99.90;;;;;;5007275;28;20030;-79
2020/12/12 03:28:21;;;;;;;68.55;27.25;;;2.40;99.90;;;;;;5008232;28;20469;-79
2020/12/12 03:30:47;;;;;;;66.30;25.20;;;2.40;99.90;;;;;;5006185;28;20044;-79
2020/12/12 03:33:12;;;;;;;70.43;25.98;;;2.40;99.90;;;;;;5006739;28;20037;-79
2020/12/12 03:35:37;;;;;;;67.38;25.42;;;2.40;99.90;;;;;;5003631;28;20029;-78
2020/12/12 03:38:03;;;;;;;65.43;24.70;;;2.40;99.90;;;;;;5007347;28;20038;-78
2020/12/12 03:40:28;;;;;;;73.57;26.30;;;2.40;99.90;;;;;;5006060;28;20029;-78
2020/12/12 03:42:54;;;;;;;70.97;25.73;;;2.40;99.90;;;;;;5007648;28;20556;-79
2020/12/12 03:45:20;;;;;;;72.88;25.17;;;2.40;99.90;;;;;;5005899;28;20068;-79
2020/12/12 03:47:49;;;;;;;70.15;25.55;;;2.40;99.90;;;;;;5007902;28;20050;-78
2020/12/12 03:50:15;;;;;;;63.40;24.40;;;2.40;99.90;;;;;;5006788;28;20030;-79
2020/12/12 03:52:42;;;;;;;63.50;24.45;;;2.40;99.90;;;;;;5006967;28;20034;-79
2020/12/12 03:55:07;;;;;;;59.83;24.52;;;2.40;99.90;;;;;;5001322;28;20038;-79
2020/12/12 03:57:33;;;;;;;62.33;24.40;;;2.40;99.90;;;;;;4999811;28;20030;-79
2020/12/12 03:59:59;;;;;;;62.58;25.02;;;2.40;99.90;;;;;;5006267;28;20439;-79
2020/12/12 04:02:24;;;;;;;57.05;23.38;;;2.50;99.90;;;;;;5005975;28;20033;-79
2020/12/12 04:04:50;;;;;;;61.53;23.85;;;2.40;99.90;;;;;;5005660;28;20049;-79
2020/12/12 04:07:15;;;;;;;56.55;22.40;;;2.40;99.90;;;;;;5006977;28;20030;-79
2020/12/12 04:09:41;;;;;;;63.15;23.50;;;2.40;99.90;;;;;;5002628;28;20465;-79
2020/12/12 04:12:06;;;;;;;67.90;25.58;;;2.40;99.90;;;;;;5002616;28;20104;-79
2020/12/12 04:14:31;;;;;;;64.50;24.30;;;2.40;99.90;;;;;;5006463;28;20262;-79
2020/12/12 04:16:57;;;;;;;55.80;23.25;;;2.40;99.90;;;;;;5008101;28;20045;-79
2020/12/12 04:19:22;;;;;;;62.47;23.75;;;2.40;99.90;;;;;;5006660;28;20037;-78
2020/12/12 04:21:49;;;;;;;59.75;24.35;;;2.40;99.90;;;;;;5006222;28;20018;-79
2020/12/12 04:24:14;;;;;;;62.58;24.38;;;2.50;99.90;;;;;;5006343;28;20396;-79
2020/12/12 04:26:40;;;;;;;57.75;24.02;;;2.50;99.90;;;;;;5005833;28;20029;-79
2020/12/12 04:29:05;;;;;;;62.60;24.13;;;2.50;99.90;;;;;;5005929;28;20396;-79
2020/12/12 04:31:31;;;;;;;55.25;23.25;;;2.40;99.90;;;;;;5006422;28;20030;-79
2020/12/12 04:33:56;;;;;;;55.67;23.48;;;2.40;99.90;;;;;;5006346;28;20026;-78
2020/12/12 04:36:22;;;;;;;62.33;25.05;;;2.40;99.90;;;;;;5003505;28;20435;-79
2020/12/12 04:38:49;;;;;;;56.90;23.30;;;2.40;99.90;;;;;;5006694;28;20030;-79
2020/12/12 04:41:14;;;;;;;52.20;23.05;;;2.40;99.90;;;;;;5005730;28;20073;-79
2020/12/12 04:43:40;;;;;;;57.95;23.38;;;2.40;99.90;;;;;;5005926;28;20041;-79
2020/12/12 04:46:06;;;;;;;50.13;22.23;;;2.50;99.90;;;;;;5008709;28;20512;-79
2020/12/12 04:48:32;;;;;;;56.58;22.60;;;2.40;99.90;;;;;;5009666;28;20117;-79
2020/12/12 04:50:58;;;;;;;55.42;24.17;;;2.50;99.90;;;;;;5013693;28;20112;-79
2020/12/12 04:53:25;;;;;;;53.00;22.67;;;2.50;99.90;;;;;;5008409;28;20026;-79
2020/12/12 04:55:52;;;;;;;54.35;22.92;;;2.50;99.90;;;;;;5010383;28;20084;-79
2020/12/12 04:58:20;;;;;;;53.28;22.40;;;2.40;99.90;;;;;;5008059;28;20026;-79
2020/12/12 05:00:48;;;;;;;51.90;22.15;;;2.50;99.90;;;;;;5008079;28;20452;-78
2020/12/12 05:03:15;;;;;;;51.03;21.98;;;2.50;99.90;;;;;;5006585;28;20535;-78
2020/12/12 05:05:41;;;;;;;56.50;23.08;;;2.50;99.90;;;;;;5008979;28;20490;-78
2020/12/12 05:08:08;;;;;;;51.22;22.70;;;2.50;99.90;;;;;;5009900;28;20026;-78
2020/12/12 05:10:42;;;;;;;58.50;22.92;;;2.50;99.90;;;;;;5009690;28;20032;-79
2020/12/12 05:13:23;;;;;;;61.25;25.02;;;2.50;99.90;;;;;;5010333;28;20476;-78
2020/12/12 05:15:51;;;;;;;57.83;23.60;;;2.50;99.90;;;;;;5010829;28;20357;-78
2020/12/12 05:18:17;;;;;;;51.63;23.48;;;2.50;99.90;;;;;;5009266;28;20033;-79
2020/12/12 05:20:43;;;;;;;52.95;23.77;;;2.50;99.90;;;;;;5008373;28;20385;-78
2020/12/12 05:23:11;;;;;;;56.60;23.67;;;2.40;99.90;;;;;;5009916;28;20030;-78
2020/12/12 05:25:37;;;;;;;54.85;23.27;;;2.40;99.90;;;;;;5008894;28;20065;-78
2020/12/12 05:28:04;;;;;;;54.08;23.92;;;2.40;99.90;;;;;;5009094;28;20026;-79
2020/12/12 05:30:30;;;;;;;63.53;24.20;;;2.40;99.90;;;;;;5007650;28;20095;-79
2020/12/12 05:32:55;;;;;;;58.90;24.88;;;2.40;99.90;;;;;;5009620;28;20026;-79
2020/12/12 05:35:23;;;;;;;57.60;24.73;;;2.40;99.90;;;;;;5009294;28;20030;-79
2020/12/12 05:37:50;;;;;;;62.63;24.88;;;2.40;99.90;;;;;;5010137;28;20079;-78
2020/12/12 05:40:15;;;;;;;53.40;23.55;;;2.40;99.90;;;;;;5009145;28;20098;-78
2020/12/12 05:42:42;;;;;;;56.75;24.13;;;2.40;99.90;;;;;;5008602;28;20025;-78
2020/12/12 05:45:08;;;;;;;51.15;23.40;;;2.40;99.90;;;;;;5010119;28;20033;-79
2020/12/12 05:47:34;;;;;;;56.20;24.90;;;2.40;99.90;;;;;;5008264;28;20034;-79
2020/12/12 05:50:00;;;;;;;60.78;24.50;;;2.40;99.90;;;;;;5011723;28;20566;-79
2020/12/12 05:52:27;;;;;;;60.17;25.00;;;2.40;99.90;;;;;;5009817;28;20034;-79
2020/12/12 05:54:53;;;;;;;55.72;24.33;;;2.40;99.90;;;;;;5007795;28;20034;-79
2020/12/12 05:57:20;;;;;;;57.13;23.80;;;2.40;99.90;;;;;;5001499;28;20037;-78
2020/12/12 05:59:47;;;;;;;58.92;25.55;;;2.40;99.90;;;;;;5016608;28;20022;-78
2020/12/12 06:02:14;;;;;;;50.55;24.42;;;2.40;99.90;;;;;;5009658;28;20030;-79
2020/12/12 06:04:52;;;;;;;62.63;25.05;;;2.40;99.90;;;;;;5008356;28;20133;-78
2020/12/12 06:07:29;;;;;;;52.97;22.98;;;2.40;99.90;;;;;;5009313;28;20030;-79
2020/12/12 06:09:58;;;;;;;56.80;24.60;;;2.40;99.90;;;;;;5008786;28;20461;-79
2020/12/12 06:12:24;;;;;;;57.05;24.45;;;2.40;99.90;;;;;;5007938;28;20509;-79
2020/12/12 06:14:54;;;;;;;61.15;25.08;;;2.40;99.90;;;;;;5009027;28;20053;-79
2020/12/12 06:17:29;;;;;;;54.05;24.98;;;2.40;99.90;;;;;;5009111;28;20084;-79
2020/12/12 06:19:58;;;;;;;55.35;24.63;;;2.40;99.90;;;;;;5010055;28;20036;-78
2020/12/12 06:22:25;;;;;;;60.67;25.27;;;2.40;99.90;;;;;;5008149;28;20716;-79
2020/12/12 06:24:59;;;;;;;62.35;25.15;;;2.40;99.90;;;;;;5009630;28;20057;-78
2020/12/12 06:27:32;;;;;;;54.65;24.38;;;2.30;99.90;;;;;;5004488;28;20023;-78
2020/12/12 06:30:01;;;;;;;59.38;23.85;;;2.40;99.90;;;;;;5001127;28;20101;-79
2020/12/12 06:32:26;;;;;;;60.70;24.75;;;2.30;99.90;;;;;;5008329;28;20469;-79
2020/12/12 06:34:52;;;;;;;58.45;25.42;;;2.40;99.90;;;;;;5009056;28;20033;-79
2020/12/12 06:37:32;;;;;;;58.00;25.40;;;2.30;99.90;;;;;;5006213;28;20483;-78
2020/12/12 06:40:00;;;;;;;56.58;24.15;;;2.30;99.90;;;;;;5008543;28;20173;-78
2020/12/12 06:42:30;;;;;;;61.13;25.05;;;2.30;99.90;;;;;;5007543;28;20034;-79
2020/12/12 06:44:55;;;;;;;57.88;24.52;;;2.30;99.90;;;;;;5008495;28;20030;-79
2020/12/12 06:47:39;;;;;;;57.35;23.65;;;2.30;99.90;;;;;;5007690;28;20095;-79
2020/12/12 06:50:16;;;;;;;54.90;23.90;;;2.30;99.90;;;;;;5007314;28;20069;-79
2020/12/12 06:52:42;;;;;;;57.80;24.95;;;2.30;99.90;;;;;;5006348;28;20040;-79
2020/12/12 06:55:12;;;;;;;58.15;23.73;;;2.40;99.90;;;;;;5006889;28;20026;-79
2020/12/12 06:57:40;;;;;;;59.25;24.58;;;2.30;99.90;;;;;;5001107;28;20025;-79
2020/12/12 07:00:08;;;;;;;63.05;25.35;;;2.30;99.90;;;;;;5008091;28;20104;-79
2020/12/12 07:02:34;;;;;;;57.30;24.15;;;2.30;99.90;;;;;;5005890;28;20030;-79
2020/12/12 07:05:19;;;;;;;55.47;25.13;;;2.30;99.90;;;;;;5006898;28;20048;-79
2020/12/12 07:07:45;;;;;;;60.97;24.77;;;2.30;99.90;;;;;;5007644;28;20034;-79
2020/12/12 07:10:10;;;;;;;66.95;27.42;;;2.20;99.90;;;;;;5007772;28;20018;-79
2020/12/12 07:12:37;;;;;;;60.05;25.52;;;2.30;99.90;;;;;;5007474;28;20511;-79
2020/12/12 07:15:04;;;;;;;60.22;24.88;;;2.30;99.90;;;;;;5005913;28;20076;-79
2020/12/12 07:17:31;;;;;;;56.25;25.85;;;2.30;99.90;;;;;;5007956;28;20425;-79
2020/12/12 07:19:57;;;;;;;66.80;27.42;;;2.30;99.90;;;;;;5006615;28;20113;-79
2020/12/12 07:22:23;;;;;;;61.45;25.38;;;2.30;99.90;;;;;;5008303;28;20048;-79
2020/12/12 07:24:48;;;;;;;69.18;27.55;;;2.20;99.90;;;;;;5005098;28;20442;-79
2020/12/12 07:27:14;;;;;;;64.18;27.60;;;2.20;99.90;;;;;;5004829;28;20029;-79
2020/12/12 07:29:39;;;;;;;66.35;27.85;;;2.30;99.90;;;;;;5005320;28;20029;-80
2020/12/12 07:32:05;;;;;;;67.18;28.80;;;2.20;99.90;;;;;;5005995;28;20120;-79
2020/12/12 07:34:30;;;;;;;67.82;29.23;;;2.30;99.90;;;;;;5006997;28;20030;-80
2020/12/12 07:37:01;;;;;;;67.88;28.75;;;2.30;99.90;;;;;;5007150;28;20021;-79
2020/12/12 07:39:28;;;;;;;64.22;27.70;;;2.30;99.90;;;;;;5004548;28;20030;-79
2020/12/12 07:41:57;;;;;;;70.55;29.77;;;2.30;99.90;;;;;;5001987;28;20031;-79
2020/12/12 07:44:23;;;;;;;78.35;30.25;;;2.30;99.90;;;;;;5007159;28;20481;-79
2020/12/12 07:47:01;;;;;;;64.38;27.15;;;2.30;99.90;;;;;;5005956;28;20041;-79
2020/12/12 07:49:28;;;;;;;68.88;28.42;;;2.30;99.90;;;;;;5007768;28;20395;-79
2020/12/12 07:52:05;;;;;;;62.17;27.20;;;2.40;99.90;;;;;;5004833;28;20030;-79
2020/12/12 07:54:42;;;;;;;69.05;28.60;;;2.40;99.90;;;;;;4999340;28;20546;-80
2020/12/12 07:57:10;;;;;;;73.15;29.63;;;2.40;99.90;;;;;;4995704;28;20034;-79
2020/12/12 07:59:36;;;;;;;58.75;28.65;;;2.40;99.90;;;;;;5006150;28;20435;-79
2020/12/12 08:02:04;;;;;;;66.97;29.20;;;2.50;99.90;;;;;;5003180;28;20029;-79
2020/12/12 08:04:30;;;;;;;69.95;29.67;;;2.40;99.90;;;;;;5003814;28;20527;-79
2020/12/12 08:06:56;;;;;;;74.07;30.42;;;2.50;99.90;;;;;;5007552;28;20036;-79
2020/12/12 08:09:24;;;;;;;74.53;32.28;;;2.50;99.90;;;;;;5007374;28;20033;-79
2020/12/12 08:11:57;;;;;;;79.50;31.85;;;2.40;99.90;;;;;;5000715;28;20036;-79
2020/12/12 08:14:23;;;;;;;72.70;30.23;;;2.40;99.90;;;;;;5007569;28;20108;-79
2020/12/12 08:16:54;;;;;;;78.03;29.60;;;2.50;99.90;;;;;;5007248;28;20555;-79
2020/12/12 08:19:19;;;;;;;75.55;32.28;;;2.50;99.90;;;;;;5005503;28;20109;-81
2020/12/12 08:21:48;;;;;;;77.65;31.48;;;2.50;99.90;;;;;;5005728;28;20106;-87
2020/12/12 08:24:14;;;;;;;70.82;31.15;;;2.50;99.90;;;;;;5010934;28;20057;-81
2020/12/12 08:26:40;;;;;;;81.90;33.15;;;2.60;99.90;;;;;;5010256;28;20053;-89
2020/12/12 08:29:05;;;;;;;78.78;32.38;;;2.60;99.90;;;;;;5008473;28;20064;-86
2020/12/12 08:31:38;;;;;;;82.68;31.77;;;2.60;99.90;;;;;;5006593;28;20026;-80
2020/12/12 08:34:04;;;;;;;80.25;31.40;;;2.70;99.90;;;;;;5008614;28;20062;-82
2020/12/12 08:36:31;;;;;;;81.18;33.88;;;2.60;99.90;;;;;;5008319;28;20061;-79
2020/12/12 08:39:02;;;;;;;79.32;31.90;;;2.60;99.90;;;;;;5010087;28;20068;-77
2020/12/12 08:41:29;;;;;;;85.53;31.95;;;2.70;99.90;;;;;;5008873;28;20034;-80
2020/12/12 08:43:55;;;;;;;79.20;32.22;;;2.80;99.90;;;;;;5011649;28;20040;-86
2020/12/12 08:46:20;;;;;;;79.03;33.03;;;2.80;99.90;;;;;;5009722;28;20400;-78
2020/12/12 08:48:46;;;;;;;78.15;32.00;;;2.90;99.90;;;;;;5009612;28;20034;-83
2020/12/12 08:51:12;;;;;;;83.00;32.83;;;2.90;99.90;;;;;;5012597;28;20037;-79
2020/12/12 08:53:46;;;;;;;78.03;31.13;;;2.90;99.90;;;;;;5011055;28;20053;-78
2020/12/12 08:56:24;;;;;;;78.65;32.55;;;2.90;99.90;;;;;;5005450;28;20030;-79
2020/12/12 08:58:51;;;;;;;76.28;32.08;;;2.90;99.90;;;;;;5007937;28;20026;-79
2020/12/12 09:01:27;;;;;;;78.10;32.08;;;2.90;99.90;;;;;;5006476;28;20385;-79
2020/12/12 09:03:59;;;;;;;79.20;31.55;;;2.90;99.90;;;;;;5007960;28;20497;-79
2020/12/12 09:06:25;;;;;;;;;;;3.00;99.90;;;;;;5006745;28;20065;-79
2020/12/12 09:09:24;;;;;;;69.80;28.10;;;3.10;99.90;;;;;;5009288;28;19913;-78
2020/12/12 09:12:00;;;;;;;73.47;30.95;;;3.20;99.90;;;;;;5010526;28;20048;-78
2020/12/12 09:14:28;;;;;;;77.68;29.77;;;3.20;99.90;;;;;;5007667;28;20036;-79
2020/12/12 09:16:55;;;;;;;80.07;30.08;;;3.20;99.90;;;;;;5004008;28;20084;-78
2020/12/12 09:19:22;;;;;;;74.15;29.92;;;3.20;99.90;;;;;;5009243;28;20036;-76
2020/12/12 09:21:50;;;;;;;74.88;28.70;;;3.20;99.90;;;;;;5007302;28;20030;-78
2020/12/12 09:24:18;;;;;;;75.72;30.95;;;3.20;99.90;;;;;;5008284;28;20086;-78
2020/12/12 09:26:44;;;;;;;84.43;30.25;;;3.30;99.90;;;;;;5006267;28;20026;-78
2020/12/12 09:29:10;;;;;;;83.78;30.27;;;3.30;99.90;;;;;;5010756;28;20546;-78
2020/12/12 09:31:35;;;;;;;75.55;31.10;;;3.30;99.90;;;;;;5008178;28;20113;-78
2020/12/12 09:34:01;;;;;;;79.07;31.48;;;3.50;99.90;;;;;;5008902;28;20061;-77
2020/12/12 09:36:27;;;;;;;80.63;30.17;;;3.60;99.90;;;;;;5009665;28;20477;-78
2020/12/12 09:38:54;;;;;;;69.80;29.20;;;3.70;99.90;;;;;;5008861;28;20116;-78
2020/12/12 09:41:19;;;;;;;85.28;30.95;;;3.60;99.90;;;;;;5010569;28;20503;-78
2020/12/12 09:43:45;;;;;;;86.25;35.85;;;3.50;99.90;;;;;;5008630;28;20056;-78
2020/12/12 09:46:11;;;;;;;118.22;44.83;;;3.50;99.90;;;;;;5010629;28;20049;-77
2020/12/12 09:48:38;;;;;;;85.70;32.92;;;3.40;99.90;;;;;;5008982;28;20026;-77
2020/12/12 09:51:05;;;;;;;69.72;28.83;;;3.30;99.90;;;;;;5022174;28;20068;-77
2020/12/12 09:53:31;;;;;;;74.72;29.75;;;3.30;99.90;;;;;;5009365;28;20124;-77
2020/12/12 09:55:56;;;;;;;76.25;32.58;;;3.40;99.90;;;;;;5009999;28;20124;-77
2020/12/12 09:58:23;;;;;;;78.65;29.83;;;3.50;99.90;;;;;;5009049;28;20034;-77
2020/12/12 10:00:49;;;;;;;80.53;30.48;;;3.50;99.90;;;;;;5007821;28;20026;-77
2020/12/12 10:03:14;;;;;;;69.63;28.33;;;3.50;99.90;;;;;;5006333;28;20254;-78
2020/12/12 10:05:40;;;;;;;76.75;28.92;;;3.60;99.90;;;;;;5003580;28;20037;-77
2020/12/12 10:08:06;;;;;;;78.68;29.90;;;3.50;99.90;;;;;;5008322;28;20038;-80
2020/12/12 10:10:32;;;;;;;76.50;29.75;;;3.60;99.90;;;;;;5009854;28;20562;-81
2020/12/12 10:12:58;;;;;;;66.82;27.67;;;3.50;99.90;;;;;;5007514;28;20042;-81
2020/12/12 10:15:24;;;;;;;68.40;28.38;;;3.60;99.90;;;;;;5009340;28;20018;-80
2020/12/12 10:17:50;;;;;;;67.38;28.95;;;3.70;99.90;;;;;;5007731;28;20049;-81
2020/12/12 10:20:17;;;;;;;67.32;28.20;;;3.90;99.90;;;;;;5009479;28;20076;-81
2020/12/12 10:22:42;;;;;;;75.32;29.42;;;4.10;99.90;;;;;;5008260;28;20026;-81
2020/12/12 10:25:09;;;;;;;71.97;27.35;;;4.40;99.90;;;;;;5007392;28;20030;-81
2020/12/12 10:27:35;;;;;;;72.35;29.73;;;4.50;99.90;;;;;;5008460;28;20033;-80
2020/12/12 10:30:02;;;;;;;74.80;29.58;;;4.70;99.90;;;;;;5007619;28;20109;-81
2020/12/12 10:32:27;;;;;;;70.47;29.08;;;4.70;99.90;;;;;;5004042;28;20026;-80
2020/12/12 10:34:53;;;;;;;66.00;27.23;;;4.80;99.90;;;;;;5007941;28;20040;-80
2020/12/12 10:37:18;;;;;;;66.57;28.08;;;4.90;99.90;;;;;;5008894;28;20040;-80
2020/12/12 10:40:30;;;;;;;63.75;27.35;;;4.90;99.90;;;;;;5006660;28;20045;-81
2020/12/12 10:42:33;;;;;;;60.67;26.17;;;5.00;99.90;;;;;;4994265;28;20038;-80
2020/12/12 10:44:59;;;;;;;66.32;26.48;;;5.10;99.90;;;;;;5006736;28;20033;-80
2020/12/12 10:47:25;;;;;;;65.43;28.23;;;5.00;99.90;;;;;;5007626;28;20428;-77
2020/12/12 10:49:50;;;;;;;66.45;26.02;;;4.90;99.90;;;;;;5002114;28;20033;-79
2020/12/12 10:52:16;;;;;;;70.63;28.40;;;4.90;99.90;;;;;;5009444;28;20113;-82
2020/12/12 10:54:45;;;;;;;70.40;29.23;;;5.10;99.90;;;;;;5006700;28;20077;-85
2020/12/12 10:57:11;;;;;;;62.55;26.08;;;5.20;99.90;;;;;;5006703;28;20396;-78
2020/12/12 10:59:42;;;;;;;64.25;26.58;;;5.30;99.90;;;;;;5007443;28;20018;-76
2020/12/12 11:02:12;;;;;;;55.92;24.60;;;5.50;99.90;;;;;;5008685;28;20030;-76
2020/12/12 11:04:39;;;;;;;66.93;26.70;;;5.70;99.90;;;;;;5007157;28;20644;-80
2020/12/12 11:07:04;;;;;;;70.80;27.30;;;5.70;99.90;;;;;;5006974;28;20096;-79
2020/12/12 11:09:30;;;;;;;69.53;26.60;;;5.70;99.90;;;;;;5006017;28;20025;-80
2020/12/12 11:11:56;;;;;;;59.10;25.90;;;5.80;99.90;;;;;;5006467;28;20471;-84
2020/12/12 11:14:24;;;;;;;63.83;25.50;;;5.80;99.90;;;;;;5001113;28;20032;-80
2020/12/12 11:16:49;;;;;;;60.25;26.65;;;5.90;99.90;;;;;;5008533;28;20034;-84
2020/12/12 11:19:15;;;;;;;59.42;25.83;;;6.10;99.90;;;;;;5006463;28;20061;-84
2020/12/12 11:21:41;;;;;;;59.60;24.35;;;6.20;99.90;;;;;;5007679;28;20029;-83
2020/12/12 11:24:07;;;;;;;58.90;25.90;;;6.30;99.90;;;;;;5006376;28;20112;-82
2020/12/12 11:26:32;;;;;;;63.45;25.85;;;6.40;99.90;;;;;;5006983;28;20088;-82
2020/12/12 11:28:58;;;;;;;62.88;25.70;;;6.30;99.90;;;;;;5006790;28;20030;-81
2020/12/12 11:31:24;;;;;;;63.55;26.10;;;6.30;99.90;;;;;;5008113;28;20477;-85
2020/12/12 11:33:59;;;;;;;53.75;25.40;;;6.40;99.90;;;;;;5006427;28;20034;-84
2020/12/12 11:41:45;;;;;;;59.90;25.23;;;6.20;99.90;;;;;;5007480;28;20629;-85
2020/12/12 11:44:27;;;;;;;63.20;25.25;;;6.20;99.90;;;;;;4998649;28;20030;-83
2020/12/12 11:46:53;;;;;;;69.95;25.65;;;6.30;99.90;;;;;;5002095;28;20027;-83
2020/12/12 11:49:20;;;;;;;64.43;26.92;;;6.30;99.90;;;;;;5004149;28;20703;-83
2020/12/12 11:51:46;;;;;;;60.15;25.50;;;6.30;99.90;;;;;;5009118;28;20026;-86
2020/12/12 11:54:11;;;;;;;64.13;26.08;;;6.30;99.90;;;;;;5010043;28;20664;-85
2020/12/12 11:56:37;;;;;;;70.50;26.33;;;6.40;99.90;;;;;;5009686;28;20464;-84
2020/12/12 11:59:02;;;;;;;62.78;25.27;;;6.40;99.90;;;;;;5004215;28;20018;-85
2020/12/12 12:01:28;;;;;;;60.65;25.90;;;6.40;99.90;;;;;;5011100;28;20033;-83
2020/12/12 12:03:54;;;;;;;65.03;25.40;;;6.40;99.90;;;;;;5003173;28;20042;-85
2020/12/12 12:06:21;;;;;;;65.00;25.23;;;6.40;99.90;;;;;;5008392;28;20033;-85
2020/12/12 12:09:08;;;;;;;62.83;25.60;;;6.20;99.90;;;;;;5010262;28;20038;-87
2020/12/12 12:11:35;;;;;;;68.13;26.15;;;6.20;99.90;;;;;;5011656;28;20053;-84
2020/12/12 12:14:02;;;;;;;59.72;25.77;;;6.00;99.90;;;;;;5011033;28;20041;-85
2020/12/12 12:16:35;;;;;;;65.40;26.30;;;5.80;99.90;;;;;;5012367;28;20503;-85
2020/12/12 12:19:01;;;;;;;71.35;27.17;;;5.60;99.90;;;;;;5008898;28;20545;-79
2020/12/12 12:21:26;;;;;;;65.00;26.10;;;5.50;99.90;;;;;;5002946;28;20026;-84
2020/12/12 12:23:52;;;;;;;58.58;25.00;;;5.40;99.90;;;;;;5010346;28;20029;-78
2020/12/12 12:26:17;;;;;;;65.82;24.48;;;5.30;99.90;;;;;;5012366;28;20554;-78
2020/12/12 12:28:43;;;;;;;71.15;25.92;;;5.30;99.90;;;;;;5010260;28;20065;-76
2020/12/12 12:31:08;;;;;;;72.95;26.90;;;5.20;99.90;;;;;;5011298;28;20022;-80
2020/12/12 12:33:34;;;;;;;61.47;24.90;;;5.10;99.90;;;;;;5009517;28;20485;-85
2020/12/12 12:35:59;;;;;;;72.82;26.30;;;5.10;99.90;;;;;;5011073;28;20077;-85
2020/12/12 12:38:25;;;;;;;66.25;25.98;;;5.10;99.90;;;;;;5010871;28;20524;-84
2020/12/12 12:40:50;;;;;;;62.03;25.30;;;5.10;99.90;;;;;;5007872;28;20024;-84
2020/12/12 12:43:16;;;;;;;65.13;25.00;;;4.90;99.90;;;;;;5012401;28;20472;-84